Time;durP1;ratioP1;P1;durP2;ratioP2;P2;SDS_P1;SDS_P2;PMS_P1;PMS_P2;Temp;Humidity;BMP_temperature;BMP_pressure;BME280_temperature;BME280_humidity;BME280_pressure;Samples;Min_cycle;Max_cycle;Signal;HPM_P1;HPM_P2
2021/12/20 00:00:42;;;;;;;1.67;1.50;;;;;;;20.80;35.17;102956.41;5039063;28;20544;-71
2021/12/20 00:03:07;;;;;;;1.77;1.00;;;;;;;20.56;35.50;102963.03;5051636;28;20127;-70
2021/12/20 00:05:33;;;;;;;2.80;0.70;;;;;;;20.54;35.58;102954.22;5049775;28;20032;-71
2021/12/20 00:07:58;;;;;;;3.53;1.20;;;;;;;20.70;35.92;102949.53;5034391;28;20025;-70
2021/12/20 00:10:24;;;;;;;4.60;1.70;;;;;;;20.17;36.24;102951.31;5034257;28;20029;-71
2021/12/20 00:12:50;;;;;;;5.73;1.10;;;;;;;20.51;35.82;102950.72;5033656;28;20044;-71
2021/12/20 00:15:16;;;;;;;7.33;1.57;;;;;;;20.20;36.59;102950.41;5031981;28;20060;-71
2021/12/20 00:17:42;;;;;;;7.37;1.63;;;;;;;20.67;35.89;102945.13;5048499;28;20029;-70
2021/12/20 00:20:08;;;;;;;4.60;1.10;;;;;;;20.54;35.37;102938.28;5051077;28;20378;-70
2021/12/20 00:22:33;;;;;;;2.87;1.30;;;;;;;20.32;35.87;102949.31;5052036;28;20101;-71
2021/12/20 00:24:59;;;;;;;9.30;1.37;;;;;;;20.57;35.62;102943.56;5040527;28;20029;-71
2021/12/20 00:27:24;;;;;;;5.07;2.30;;;;;;;20.56;35.27;102947.97;5045976;28;20452;-70
2021/12/20 00:29:50;;;;;;;5.87;1.53;;;;;;;20.58;34.02;102939.97;5039080;28;20030;-71
2021/12/20 00:32:17;;;;;;;5.90;1.20;;;;;;;20.42;35.47;102942.91;5031394;28;20087;-70
2021/12/20 00:34:43;;;;;;;5.07;1.60;;;;;;;20.58;34.13;102934.66;5039928;28;20017;-71
2021/12/20 00:40:20;;;;;;;10.23;1.37;;;;;;;20.16;34.90;102933.63;5043030;28;20109;-71
2021/12/20 00:42:39;;;;;;;12.47;1.33;;;;;;;20.17;34.79;102922.13;5042975;28;20048;-71
2021/12/20 00:45:05;;;;;;;12.23;2.13;;;;;;;18.64;36.88;102933.91;5037078;28;20029;-71
2021/12/20 00:47:30;;;;;;;10.87;1.60;;;;;;;20.00;34.56;102927.72;5049540;28;20033;-70
2021/12/20 00:49:56;;;;;;;12.23;1.43;;;;;;;19.90;34.51;102909.31;5050921;28;20036;-70
2021/12/20 00:52:21;;;;;;;11.33;1.50;;;;;;;20.14;34.31;102923.94;5044553;28;20024;-70
2021/12/20 00:54:46;;;;;;;8.87;1.70;;;;;;;19.76;35.34;102921.00;5039868;28;20489;-70
2021/12/20 00:57:12;;;;;;;9.17;1.50;;;;;;;19.83;34.36;102920.00;5038831;28;20086;-70
2021/12/20 00:59:37;;;;;;;10.77;1.57;;;;;;;19.27;35.53;102929.66;5039931;28;20448;-70
2021/12/20 01:02:03;;;;;;;10.90;1.50;;;;;;;19.85;34.23;102930.59;5049992;28;20025;-70
2021/12/20 01:04:28;;;;;;;5.80;1.57;;;;;;;20.33;34.18;102929.81;5051505;28;20037;-70
2021/12/20 01:06:54;;;;;;;6.20;1.63;;;;;;;20.33;34.03;102927.16;5043536;28;20021;-70
2021/12/20 01:09:19;;;;;;;12.77;2.20;;;;;;;20.58;33.84;102924.94;5049964;28;20399;-70
2021/12/20 01:11:50;;;;;;;8.33;1.20;;;;;;;20.34;33.82;102926.25;5049599;28;20083;-70
2021/12/20 01:14:22;;;;;;;11.67;1.73;;;;;;;20.66;33.68;102925.66;5050195;28;20371;-71
2021/12/20 01:16:48;;;;;;;11.55;1.55;;;;;;;20.63;33.77;102912.41;5040327;28;20037;-71
2021/12/20 01:19:13;;;;;;;14.93;1.73;;;;;;;21.02;33.20;102917.88;5049478;28;20446;-71
2021/12/20 01:21:38;;;;;;;9.90;1.70;;;;;;;20.15;33.62;102917.72;5049828;28;20021;-70
2021/12/20 01:24:05;;;;;;;16.47;1.77;;;;;;;20.59;34.17;102921.34;5045518;28;20498;-71
2021/12/20 01:26:30;;;;;;;13.37;1.80;;;;;;;20.77;33.25;102921.94;5039247;28;20100;-71
2021/12/20 01:28:55;;;;;;;9.83;1.43;;;;;;;20.88;33.00;102921.72;5031784;28;20397;-70
2021/12/20 01:31:21;;;;;;;7.60;1.60;;;;;;;20.67;33.24;102914.09;5032258;28;20083;-70
2021/12/20 01:33:47;;;;;;;10.13;1.60;;;;;;;20.80;33.21;102912.13;5031675;28;20036;-69
2021/12/20 01:36:12;;;;;;;9.60;2.17;;;;;;;20.89;32.94;102918.16;5038232;28;20123;-70
2021/12/20 01:38:37;;;;;;;7.40;1.83;;;;;;;20.68;33.57;102909.72;5041975;28;20032;-69
2021/12/20 01:41:04;;;;;;;8.33;1.40;;;;;;;20.84;33.02;102927.09;5034569;28;20417;-70
2021/12/20 01:43:30;;;;;;;10.87;1.60;;;;;;;21.07;32.14;102917.75;5030911;28;20037;-70
2021/12/20 01:45:55;;;;;;;8.27;1.63;;;;;;;20.89;32.73;102916.38;5036344;28;20397;-70
2021/12/20 01:48:22;;;;;;;14.17;1.80;;;;;;;20.95;32.92;102902.06;5050945;28;20029;-70
2021/12/20 01:53:32;;;;;;;10.33;1.87;;;;;;;20.38;32.67;102914.66;5047575;28;20032;-70
2021/12/20 01:55:58;;;;;;;11.80;1.80;;;;;;;20.50;32.67;102921.53;5038633;28;20029;-70
2021/12/20 01:58:25;;;;;;;8.57;1.80;;;;;;;20.57;32.30;102919.66;5030110;28;20041;-69
2021/12/20 02:03:35;;;;;;;15.30;2.50;;;;;;;20.73;32.07;102918.47;5032826;28;20033;-70
2021/12/20 02:06:04;;;;;;;9.03;1.63;;;;;;;20.60;31.94;102914.28;5044409;28;20035;-69
2021/12/20 02:08:30;;;;;;;8.67;2.20;;;;;;;20.01;33.32;102910.00;5042370;28;20477;-70
2021/12/20 02:10:58;;;;;;;7.47;1.37;;;;;;;19.57;33.22;102912.44;5031486;28;20156;-69
2021/12/20 02:13:30;;;;;;;13.20;1.77;;;;;;;20.01;32.41;102917.97;5029757;28;20025;-69
2021/12/20 02:16:00;;;;;;;12.43;2.50;;;;;;;19.94;32.60;102911.00;5034353;28;20029;-70
2021/12/20 02:18:26;;;;;;;11.80;1.57;;;;;;;19.86;33.14;102912.91;5031058;28;20033;-69
2021/12/20 02:20:52;;;;;;;12.30;1.50;;;;;;;19.82;33.00;102907.66;5042044;28;20128;-69
2021/12/20 02:23:17;;;;;;;12.70;2.50;;;;;;;19.73;33.40;102907.78;5047520;28;20159;-69
2021/12/20 02:25:42;;;;;;;5.03;1.20;;;;;;;19.35;33.36;102903.91;5031894;28;20559;-69
2021/12/20 02:28:13;;;;;;;7.57;1.13;;;;;;;20.30;32.82;102908.63;5036765;28;20036;-70
2021/12/20 02:38:41;;;;;;;15.37;2.07;;;;;;;20.22;33.14;102903.44;5035380;28;20068;-71
2021/12/20 02:41:11;;;;;;;5.97;1.17;;;;;;;20.18;32.68;102899.09;5029163;28;20036;-69
2021/12/20 02:43:41;;;;;;;15.87;2.07;;;;;;;19.94;32.94;102895.09;5030766;28;20481;-70
2021/12/20 02:48:56;;;;;;;14.43;1.60;;;;;;;19.69;32.71;102889.25;5045759;28;20040;-70
2021/12/20 02:51:24;;;;;;;10.70;1.60;;;;;;;19.71;32.61;102893.66;5047737;28;20052;-69
2021/12/20 02:53:50;;;;;;;13.03;1.90;;;;;;;19.65;32.41;102891.09;5044201;28;20036;-69
2021/12/20 02:56:16;;;;;;;12.07;2.40;;;;;;;20.08;31.50;102893.06;5033161;28;20026;-70
2021/12/20 02:58:42;;;;;;;16.27;2.43;;;;;;;20.09;32.24;102893.97;5041693;28;20064;-69
2021/12/20 03:01:07;;;;;;;11.97;1.70;;;;;;;20.22;32.23;102892.81;5047952;28;20065;-70
2021/12/20 03:03:33;;;;;;;15.20;2.67;;;;;;;19.65;32.29;102897.28;5049024;28;20090;-69
2021/12/20 03:05:58;;;;;;;15.23;1.43;;;;;;;19.63;32.68;102885.81;5047343;28;20437;-70
2021/12/20 03:08:24;;;;;;;13.90;1.43;;;;;;;20.08;31.84;102887.75;5038334;28;20029;-70
2021/12/20 03:10:50;;;;;;;15.90;1.63;;;;;;;19.70;32.11;102889.25;5046437;28;20520;-70
2021/12/20 03:13:15;;;;;;;16.43;2.27;;;;;;;20.21;31.84;102892.84;5048361;28;20044;-70
2021/12/20 03:15:41;;;;;;;11.70;1.60;;;;;;;19.41;32.01;102895.88;5036785;28;20034;-69
2021/12/20 03:18:06;;;;;;;16.50;2.47;;;;;;;19.35;33.00;102885.34;5036026;28;20447;-70
2021/12/20 03:20:32;;;;;;;12.77;1.53;;;;;;;19.05;33.72;102903.41;5035387;28;20087;-69
2021/12/20 03:22:57;;;;;;;15.43;2.10;;;;;;;19.80;32.86;102905.94;5028261;28;20049;-70
2021/12/20 03:25:23;;;;;;;13.20;2.13;;;;;;;19.59;32.15;102896.50;5030397;28;20048;-70
2021/12/20 03:27:48;;;;;;;14.87;1.63;;;;;;;19.13;33.62;102896.25;5034399;28;20116;-70
2021/12/20 03:30:15;;;;;;;12.57;1.80;;;;;;;18.67;34.01;102906.50;5040982;28;20034;-70
2021/12/20 03:32:41;;;;;;;12.87;1.27;;;;;;;19.25;32.82;102904.97;5028629;28;20029;-70
2021/12/20 03:35:08;;;;;;;10.70;1.83;;;;;;;18.94;33.38;102900.03;5028634;28;20345;-70
2021/12/20 03:37:33;;;;;;;10.70;1.80;;;;;;;19.28;32.98;102889.00;5033242;28;20026;-70
2021/12/20 03:39:59;;;;;;;9.43;1.37;;;;;;;19.13;32.32;102890.94;5038992;28;20074;-69
2021/12/20 03:42:26;;;;;;;20.33;2.13;;;;;;;19.14;32.50;102886.53;5049440;28;20040;-70
2021/12/20 03:44:52;;;;;;;11.87;1.57;;;;;;;19.70;32.47;102886.59;5043972;28;20490;-69
2021/12/20 03:47:17;;;;;;;13.67;2.10;;;;;;;19.56;32.30;102885.94;5051336;28;20021;-70
2021/12/20 03:49:43;;;;;;;11.83;2.23;;;;;;;19.92;32.35;102883.63;5048336;28;20082;-70
2021/12/20 03:52:10;;;;;;;13.00;1.53;;;;;;;19.64;32.57;102882.25;5047528;28;20040;-70
2021/12/20 03:54:36;;;;;;;10.77;2.43;;;;;;;19.63;31.93;102874.31;5040995;28;20401;-70
2021/12/20 03:57:02;;;;;;;13.60;1.73;;;;;;;19.86;32.49;102886.38;5032287;28;20060;-70
2021/12/20 03:59:28;;;;;;;18.00;2.30;;;;;;;19.53;32.88;102884.19;5045516;28;20025;-70
2021/12/20 04:01:55;;;;;;;17.57;1.83;;;;;;;19.41;32.34;102879.09;5052626;28;20111;-70
2021/12/20 04:04:21;;;;;;;8.50;1.83;;;;;;;19.91;31.85;102873.94;5035807;28;20025;-70
2021/12/20 04:06:47;;;;;;;7.87;1.20;;;;;;;19.94;31.59;102876.53;5032587;28;20044;-70
2021/12/20 04:09:12;;;;;;;17.00;3.33;;;;;;;20.02;31.68;102882.56;5039902;28;20025;-70
2021/12/20 04:11:37;;;;;;;4.23;1.00;;;;;;;20.13;31.93;102888.56;5051994;28;20032;-70
2021/12/20 04:14:03;;;;;;;18.67;1.50;;;;;;;19.34;31.16;102878.28;5051285;28;20104;-70
2021/12/20 04:16:29;;;;;;;22.07;2.70;;;;;;;18.77;32.12;102886.97;5031718;28;20073;-69
2021/12/20 04:18:55;;;;;;;7.83;1.33;;;;;;;19.71;31.74;102888.34;5037503;28;20488;-70
2021/12/20 04:21:21;;;;;;;11.50;1.23;;;;;;;19.23;32.18;102885.53;5053366;28;20028;-70
2021/12/20 04:23:46;;;;;;;15.47;1.73;;;;;;;19.73;31.49;102881.25;5067822;28;20152;-69
2021/12/20 04:26:11;;;;;;;9.60;2.27;;;;;;;20.42;30.05;102887.16;5047340;28;20556;-69
2021/12/20 04:28:37;;;;;;;19.63;2.07;;;;;;;20.37;31.11;102885.47;5040678;28;20036;-70
2021/12/20 04:31:02;;;;;;;8.77;1.30;;;;;;;20.43;31.37;102880.94;5061666;28;20035;-70
2021/12/20 04:33:28;;;;;;;10.40;1.73;;;;;;;19.87;30.67;102882.84;5035362;28;20040;-70
2021/12/20 04:35:53;;;;;;;12.60;1.80;;;;;;;19.70;31.70;102886.59;5051896;28;20125;-70
2021/12/20 04:38:19;;;;;;;10.73;1.50;;;;;;;20.39;31.20;102883.66;5034564;28;20029;-69
2021/12/20 04:40:44;;;;;;;10.27;1.60;;;;;;;20.03;30.53;102876.38;5056600;28;20518;-70
2021/12/20 04:43:10;;;;;;;9.83;1.90;;;;;;;20.02;31.38;102877.25;5054400;28;20013;-70
2021/12/20 04:45:36;;;;;;;14.53;2.83;;;;;;;19.91;31.24;102874.78;5041175;28;20097;-72
2021/12/20 04:48:05;;;;;;;11.70;2.00;;;;;;;20.30;31.47;102887.38;5033562;28;20520;-70
2021/12/20 04:50:30;;;;;;;10.33;1.67;;;;;;;20.24;31.44;102882.19;5038731;28;20025;-70
2021/12/20 04:52:57;;;;;;;16.00;1.60;;;;;;;20.76;30.59;102881.22;5071691;28;20059;-69
2021/12/20 04:55:24;;;;;;;22.17;2.60;;;;;;;20.28;31.06;102889.19;5042178;28;20170;-70
2021/12/20 04:57:50;;;;;;;7.27;1.40;;;;;;;20.28;32.16;102883.88;5033741;28;20039;-70
2021/12/20 05:00:20;;;;;;;10.53;2.17;;;;;;;20.64;30.91;102882.28;5044039;28;20056;-70
2021/12/20 05:02:46;;;;;;;12.47;2.40;;;;;;;20.54;31.00;102890.47;5050588;28;20539;-70
2021/12/20 05:05:12;;;;;;;16.33;2.33;;;;;;;20.38;31.73;102882.78;5053010;28;20396;-70
2021/12/20 05:07:39;;;;;;;9.13;2.07;;;;;;;20.25;30.80;102881.25;5054936;28;20017;-70
2021/12/20 05:10:11;;;;;;;9.50;1.23;;;;;;;20.33;30.60;102879.34;5040922;28;20032;-70
2021/12/20 05:12:36;;;;;;;19.77;1.83;;;;;;;20.45;30.29;102889.72;5036010;28;20032;-70
2021/12/20 05:15:02;;;;;;;10.73;1.80;;;;;;;20.43;30.90;102883.59;5034118;28;20033;-70
2021/12/20 05:17:28;;;;;;;8.57;1.10;;;;;;;20.15;31.42;102884.13;5056156;28;20480;-70
2021/12/20 05:19:53;;;;;;;8.33;2.03;;;;;;;19.82;31.47;102881.13;5053256;28;20029;-70
2021/12/20 05:22:18;;;;;;;13.47;1.40;;;;;;;19.47;32.04;102882.53;5036050;28;20493;-70
2021/12/20 05:24:44;;;;;;;14.60;2.03;;;;;;;19.91;31.82;102892.50;5034280;28;20510;-70
2021/12/20 05:27:10;;;;;;;9.63;1.83;;;;;;;20.19;31.70;102898.19;5037748;28;20049;-70
2021/12/20 05:29:35;;;;;;;11.97;1.10;;;;;;;20.39;30.79;102892.53;5034619;28;20493;-70
2021/12/20 05:32:04;;;;;;;8.70;1.83;;;;;;;20.07;31.00;102891.34;5034305;28;20509;-70
2021/12/20 05:34:29;;;;;;;14.30;2.47;;;;;;;19.44;31.87;102890.53;5070232;28;20062;-70
2021/12/20 05:36:54;;;;;;;7.93;1.43;;;;;;;19.80;32.37;102893.53;5050588;28;20034;-70
2021/12/20 05:39:20;;;;;;;10.57;2.00;;;;;;;19.41;32.08;102895.88;5068292;28;20082;-70
2021/12/20 05:41:45;;;;;;;10.90;1.60;;;;;;;19.20;32.30;102901.47;5047129;28;20033;-69
2021/12/20 05:44:11;;;;;;;11.17;1.70;;;;;;;19.76;32.37;102894.47;5069561;28;20036;-70
2021/12/20 05:46:36;;;;;;;12.87;1.53;;;;;;;19.27;32.64;102895.19;5039635;28;20116;-70
2021/12/20 05:49:02;;;;;;;13.10;1.90;;;;;;;19.46;32.96;102893.16;5048359;28;20036;-70
2021/12/20 05:51:28;;;;;;;11.37;1.63;;;;;;;19.00;34.25;102907.94;5040119;28;20052;-70
2021/12/20 05:53:53;;;;;;;16.10;2.07;;;;;;;18.16;35.10;102904.38;5051485;28;20033;-72
2021/12/20 05:56:19;;;;;;;15.17;1.73;;;;;;;18.97;33.50;102905.28;5032921;28;20385;-70
2021/12/20 05:58:44;;;;;;;12.53;1.97;;;;;;;18.35;34.12;102899.78;5051546;28;20041;-70
2021/12/20 06:01:10;;;;;;;16.90;1.93;;;;;;;19.13;32.92;102901.56;5045472;28;20078;-70
2021/12/20 06:03:35;;;;;;;16.43;2.20;;;;;;;17.99;33.43;102907.19;5052723;28;20093;-71
2021/12/20 06:06:00;;;;;;;11.63;2.20;;;;;;;18.94;32.78;102905.34;5043306;28;20041;-71
2021/12/20 06:08:26;;;;;;;9.30;1.50;;;;;;;18.04;32.62;102903.59;5040663;28;20128;-72
2021/12/20 06:10:51;;;;;;;18.87;2.50;;;;;;;19.33;31.95;102913.69;5042174;28;20367;-71
2021/12/20 06:13:17;;;;;;;16.57;2.70;;;;;;;19.69;31.44;102907.81;5033362;28;20040;-71
2021/12/20 06:15:42;;;;;;;5.30;1.13;;;;;;;19.48;31.51;102908.16;5050416;28;20039;-72
2021/12/20 06:18:07;;;;;;;6.40;1.80;;;;;;;18.75;32.74;102918.78;5032709;28;20533;-72
2021/12/20 06:20:33;;;;;;;16.37;2.00;;;;;;;17.85;32.19;102916.06;5041829;28;20025;-71
2021/12/20 06:22:58;;;;;;;10.47;1.13;;;;;;;19.61;30.08;102907.97;5034370;28;20405;-71
2021/12/20 06:25:26;;;;;;;12.93;1.20;;;;;;;19.49;30.87;102909.91;5070946;28;20024;-71
2021/12/20 06:27:52;;;;;;;8.03;1.57;;;;;;;19.65;31.53;102910.53;5050117;28;20025;-71
2021/12/20 06:30:17;;;;;;;15.50;2.00;;;;;;;19.72;30.87;102908.66;5039556;28;20032;-71
2021/12/20 06:32:44;;;;;;;11.57;1.90;;;;;;;19.95;30.13;102905.69;5069085;28;20037;-71
2021/12/20 06:35:13;;;;;;;6.90;1.53;;;;;;;19.60;31.00;102898.25;5068563;28;20033;-71
2021/12/20 06:37:38;;;;;;;10.23;2.37;;;;;;;19.32;31.07;102899.53;5051398;28;20111;-71
2021/12/20 06:40:04;;;;;;;7.77;1.30;;;;;;;19.06;30.18;102913.13;5060123;28;20168;-71
2021/12/20 06:42:30;;;;;;;11.87;2.00;;;;;;;19.92;30.55;102905.75;5036960;28;20028;-71
2021/12/20 06:44:55;;;;;;;12.50;1.50;;;;;;;19.83;30.82;102913.84;5052994;28;20029;-71
2021/12/20 06:47:23;;;;;;;17.87;4.37;;;;;;;20.08;29.90;102911.66;5050581;28;20123;-72
2021/12/20 06:49:48;;;;;;;7.57;1.40;;;;;;;20.24;30.44;102908.75;5044924;28;20025;-72
2021/12/20 06:52:14;;;;;;;9.07;1.80;;;;;;;20.22;30.43;102907.88;5031647;28;20088;-71
2021/12/20 06:54:39;;;;;;;13.13;3.63;;;;;;;20.47;29.66;102911.84;5036714;28;20025;-71
2021/12/20 06:57:05;;;;;;;13.80;3.10;;;;;;;20.32;29.41;102917.44;5032039;28;20057;-71
2021/12/20 06:59:31;;;;;;;21.47;3.13;;;;;;;20.12;30.38;102923.09;5038018;28;20485;-71
2021/12/20 07:01:56;;;;;;;8.20;2.87;;;;;;;20.44;29.91;102922.53;5043302;28;20035;-71
2021/12/20 07:04:21;;;;;;;7.47;3.00;;;;;;;20.03;31.55;102909.97;5032451;28;20091;-72
2021/12/20 07:06:52;;;;;;;8.47;3.23;;;;;;;20.06;30.88;102913.47;5050452;28;20024;-71
2021/12/20 07:09:17;;;;;;;9.40;2.00;;;;;;;19.80;30.69;102928.03;5043810;28;20028;-71
2021/12/20 07:11:43;;;;;;;12.03;1.77;;;;;;;19.23;32.14;102927.94;5050911;28;20029;-71
2021/12/20 07:14:10;;;;;;;14.87;1.90;;;;;;;19.59;31.57;102920.34;5031822;28;20114;-71
2021/12/20 07:16:36;;;;;;;10.03;1.67;;;;;;;19.60;31.65;102922.13;5050453;28;20021;-71
2021/12/20 07:19:04;;;;;;;16.37;1.93;;;;;;;18.61;32.06;102928.63;5067367;28;20044;-71
2021/12/20 07:21:29;;;;;;;13.60;1.90;;;;;;;19.34;31.99;102926.00;5038384;28;20012;-71
2021/12/20 07:23:54;;;;;;;7.90;1.30;;;;;;;19.27;31.65;102921.69;5044551;28;20047;-71
2021/12/20 07:26:20;;;;;;;7.90;1.30;;;;;;;19.60;31.51;102927.44;5054616;28;20024;-70
2021/12/20 07:28:45;;;;;;;7.77;1.57;;;;;;;19.22;31.58;102928.84;5042530;28;20484;-70
2021/12/20 07:31:12;;;;;;;7.43;1.23;;;;;;;19.49;32.19;102925.81;5039501;28;20067;-70
2021/12/20 07:33:39;;;;;;;11.00;1.97;;;;;;;19.86;31.71;102924.41;5031743;28;20039;-70
2021/12/20 07:36:05;;;;;;;9.40;1.33;;;;;;;19.80;31.37;102921.88;5050618;28;20500;-70
2021/12/20 07:38:30;;;;;;;8.33;1.50;;;;;;;19.63;31.78;102922.06;5062934;28;20106;-70
2021/12/20 07:40:57;;;;;;;4.37;1.47;;;;;;;19.73;32.22;102921.03;5048601;28;20122;-72
2021/12/20 07:43:23;;;;;;;9.10;1.83;;;;;;;19.70;29.08;102923.75;5052026;28;20813;-72
2021/12/20 07:45:48;;;;;;;8.63;1.80;;;;;;;18.95;29.88;102929.16;5060941;28;20079;-70
2021/12/20 07:48:19;;;;;;;8.17;1.53;;;;;;;19.36;30.22;102918.03;5050320;28;20039;-70
2021/12/20 07:50:46;;;;;;;4.70;1.83;;;;;;;20.09;29.32;102916.06;5039124;28;20139;-70
2021/12/20 07:53:11;;;;;;;9.30;1.30;;;;;;;19.89;29.50;102931.44;5050742;28;20032;-70
2021/12/20 07:55:37;;;;;;;7.87;2.53;;;;;;;19.81;29.37;102926.25;5048764;28;20025;-70
2021/12/20 07:58:03;;;;;;;13.07;1.90;;;;;;;19.73;30.14;102928.09;4987241;28;20082;-70
2021/12/20 08:00:28;;;;;;;10.03;1.40;;;;;;;19.58;29.35;102930.09;5068094;28;20435;-70
2021/12/20 08:02:56;;;;;;;7.40;1.40;;;;;;;19.46;31.00;102930.28;5045890;28;20027;-70
2021/12/20 08:05:21;;;;;;;5.50;1.10;;;;;;;19.69;30.73;102927.28;5041228;28;20063;-70
2021/12/20 08:07:50;;;;;;;5.03;1.87;;;;;;;19.62;31.09;102936.25;5039789;28;20036;-70
2021/12/20 08:10:17;;;;;;;8.30;1.37;;;;;;;19.50;30.82;102937.28;5066933;28;20078;-70
2021/12/20 08:12:44;;;;;;;10.33;1.70;;;;;;;19.79;31.41;102939.50;5030654;28;20032;-69
2021/12/20 08:15:10;;;;;;;2.93;1.30;;;;;;;19.73;31.50;102944.91;5036264;28;20029;-70
2021/12/20 08:17:35;;;;;;;9.47;1.70;;;;;;;19.80;31.46;102946.59;5048054;28;20378;-70
2021/12/20 08:20:00;;;;;;;6.17;1.70;;;;;;;19.72;30.98;102937.84;5057089;28;20055;-71
2021/12/20 08:22:26;;;;;;;7.87;1.33;;;;;;;19.57;31.15;102936.31;5038900;28;20091;-70
2021/12/20 08:24:52;;;;;;;10.70;2.20;;;;;;;19.82;30.73;102939.50;5066599;28;20481;-70
2021/12/20 08:27:18;;;;;;;3.23;1.33;;;;;;;19.77;30.91;102941.31;5033913;28;20388;-70
2021/12/20 08:29:43;;;;;;;8.73;1.40;;;;;;;19.56;30.72;102941.63;5054615;28;20028;-70
2021/12/20 08:32:09;;;;;;;7.67;1.30;;;;;;;19.59;30.76;102949.53;5042277;28;20135;-70
2021/12/20 08:34:34;;;;;;;7.43;1.10;;;;;;;19.61;30.80;102951.28;5070277;28;20038;-70
2021/12/20 08:37:01;;;;;;;7.77;1.07;;;;;;;19.65;31.01;102946.81;5051406;28;20301;-70
2021/12/20 08:39:27;;;;;;;5.20;1.33;;;;;;;19.75;30.84;102940.44;5053667;28;20484;-70
2021/12/20 08:41:53;;;;;;;5.37;1.10;;;;;;;19.81;31.10;102947.47;5034303;28;20473;-69
2021/12/20 08:44:19;;;;;;;6.07;1.00;;;;;;;19.79;30.37;102943.94;5052664;28;20029;-70
2021/12/20 08:46:44;;;;;;;6.00;1.60;;;;;;;19.42;30.99;102934.75;5034417;28;20048;-70
2021/12/20 08:49:09;;;;;;;3.73;1.17;;;;;;;20.08;29.92;102940.84;5067252;28;20577;-70
2021/12/20 08:51:36;;;;;;;6.07;1.60;;;;;;;19.68;30.65;102952.06;5040870;28;20032;-70
2021/12/20 08:54:04;;;;;;;15.07;2.47;;;;;;;19.66;30.08;102954.75;5034135;28;20033;-70
2021/12/20 08:56:30;;;;;;;6.80;1.53;;;;;;;18.71;30.93;102956.81;5039418;28;20028;-70
2021/12/20 08:58:55;;;;;;;8.03;1.70;;;;;;;19.72;30.44;102953.78;5041246;28;20391;-70
2021/12/20 09:01:21;;;;;;;6.03;1.37;;;;;;;19.83;30.01;102959.81;5053409;28;20211;-70
2021/12/20 09:03:46;;;;;;;10.97;1.30;;;;;;;19.91;30.33;102959.72;5069683;28;20032;-70
2021/12/20 09:06:13;;;;;;;8.87;1.53;;;;;;;19.18;30.55;102966.88;5043406;28;20024;-70
2021/12/20 09:08:40;;;;;;;7.83;1.50;;;;;;;18.77;31.10;102969.97;5055900;28;20036;-70
2021/12/20 09:11:06;;;;;;;8.53;1.77;;;;;;;19.46;30.48;102965.63;5061668;28;20059;-70
2021/12/20 09:13:31;;;;;;;16.07;2.13;;;;;;;19.47;31.19;102969.16;5034804;28;20021;-70
2021/12/20 09:15:59;;;;;;;4.47;1.57;;;;;;;19.98;30.04;102971.09;5037660;28;20067;-70
2021/12/20 09:18:28;;;;;;;4.77;1.40;;;;;;;19.40;30.98;102971.03;5051880;28;20029;-70
2021/12/20 09:20:55;;;;;;;4.83;1.23;;;;;;;19.55;31.17;102969.03;5037863;28;20103;-70
2021/12/20 09:23:21;;;;;;;11.20;1.60;;;;;;;19.83;30.66;102965.13;5053129;28;20048;-70
2021/12/20 09:25:46;;;;;;;6.60;1.73;;;;;;;18.31;32.44;102978.34;5043208;28;20033;-71
2021/12/20 09:28:14;;;;;;;9.60;1.73;;;;;;;19.55;31.50;102979.66;5049633;28;20056;-71
2021/12/20 09:30:42;;;;;;;7.67;1.23;;;;;;;19.29;31.75;102972.94;5034112;28;20032;-70
2021/12/20 09:33:09;;;;;;;8.27;1.37;;;;;;;19.10;31.89;102973.16;5039358;28;20093;-70
2021/12/20 09:35:34;;;;;;;7.13;1.33;;;;;;;19.31;31.76;102971.13;5036205;28;20051;-70
2021/12/20 09:38:00;;;;;;;7.87;1.40;;;;;;;19.57;31.38;102970.78;5068425;28;20459;-70
2021/12/20 09:40:36;;;;;;;13.27;1.40;;;;;;;19.42;31.17;102973.66;5033802;28;20134;-70
2021/12/20 09:43:05;;;;;;;6.97;1.37;;;;;;;20.33;30.52;102966.97;5032686;28;20055;-70
2021/12/20 09:45:31;;;;;;;9.10;1.97;;;;;;;19.97;30.46;102977.31;5061109;28;20078;-70
2021/12/20 09:47:57;;;;;;;11.73;1.60;;;;;;;18.35;32.66;102982.72;5042865;28;20033;-70
2021/12/20 09:50:23;;;;;;;8.00;1.27;;;;;;;19.73;31.67;102982.06;5047771;28;20110;-70
2021/12/20 09:52:48;;;;;;;5.30;1.37;;;;;;;19.06;32.27;102984.69;5037664;28;20032;-71
2021/12/20 09:55:15;;;;;;;6.30;1.30;;;;;;;19.44;31.38;102985.09;5031572;28;20147;-71
2021/12/20 09:57:46;;;;;;;4.67;1.47;;;;;;;20.44;30.82;102975.66;5041590;28;20029;-70
2021/12/20 10:00:15;;;;;;;6.30;1.30;;;;;;;20.78;30.39;102983.00;5051563;28;20039;-70
2021/12/20 10:02:45;;;;;;;6.83;1.07;;;;;;;20.00;30.88;102982.56;5046731;28;20043;-70
2021/12/20 10:05:15;;;;;;;5.63;1.27;;;;;;;19.18;31.87;102983.69;5049755;28;20035;-70
2021/12/20 10:07:41;;;;;;;10.07;1.53;;;;;;;20.21;30.52;102977.81;5066004;28;20082;-70
2021/12/20 10:10:10;;;;;;;7.80;1.60;;;;;;;19.95;30.66;102982.66;5044305;28;20568;-70
2021/12/20 10:12:47;;;;;;;8.30;1.20;;;;;;;20.11;30.15;102980.63;5044045;28;20086;-70
2021/12/20 10:15:14;;;;;;;5.13;0.93;;;;;;;19.45;30.60;102987.75;5049296;28;20021;-70
2021/12/20 10:17:56;;;;;;;16.40;2.00;;;;;;;19.60;30.51;102981.34;5062129;28;20056;-70
2021/12/20 10:20:26;;;;;;;13.40;1.67;;;;;;;19.75;30.49;102990.84;5032854;28;20032;-70
2021/12/20 10:22:52;;;;;;;8.13;1.27;;;;;;;19.65;30.74;102989.25;5032731;28;20049;-70
2021/12/20 10:25:21;;;;;;;10.93;1.77;;;;;;;19.93;30.74;102986.22;5051080;28;20458;-70
2021/12/20 10:27:47;;;;;;;6.37;1.10;;;;;;;20.16;30.74;102986.72;5047816;28;20449;-70
2021/12/20 10:30:25;;;;;;;4.43;1.37;;;;;;;20.06;31.27;102982.47;5036107;28;20017;-69
2021/12/20 10:32:52;;;;;;;6.63;1.23;;;;;;;19.61;30.63;102982.25;5040016;28;20068;-69
2021/12/20 10:35:27;;;;;;;6.67;1.20;;;;;;;20.39;29.28;102977.50;5041159;28;20396;-71
2021/12/20 10:38:05;;;;;;;5.57;1.33;;;;;;;21.64;27.93;102982.19;5042399;28;20050;-71
2021/12/20 10:40:31;;;;;;;6.47;1.60;;;;;;;20.80;29.11;102982.97;5033121;28;20033;-71
2021/12/20 10:42:59;;;;;;;4.77;0.90;;;;;;;20.57;28.19;102975.44;5061219;28;20104;-71
2021/12/20 10:45:26;;;;;;;8.00;0.83;;;;;;;20.45;28.27;102977.38;5052145;28;20028;-71
2021/12/20 10:47:51;;;;;;;6.93;1.30;;;;;;;20.58;27.38;102978.06;5032035;28;20029;-71
2021/12/20 10:50:23;;;;;;;6.47;0.83;;;;;;;20.19;28.72;102983.16;5049759;28;20373;-71
2021/12/20 10:52:49;;;;;;;5.75;1.67;;;;;;;20.88;27.93;102982.84;5073146;28;20426;-71
2021/12/20 10:55:41;;;;;;;3.70;0.90;;;;;;;19.97;28.37;102985.28;5042559;28;20124;-71
2021/12/20 10:58:28;;;;;;;10.30;1.10;;;;;;;20.31;28.12;102974.09;5049083;28;20033;-71
2021/12/20 11:04:04;;;;;;;7.20;0.90;;;;;;;21.32;27.98;102981.06;5048149;28;20366;-72
2021/12/20 11:06:43;;;;;;;8.50;0.90;;;;;;;20.84;28.03;102982.91;5047021;28;20020;-72
2021/12/20 11:09:15;;;;;;;8.97;1.10;;;;;;;20.79;28.22;102976.81;5031988;28;20498;-72
2021/12/20 11:11:48;;;;;;;4.47;1.02;;;;;;;20.31;28.78;102968.81;5055304;28;20105;-72
2021/12/20 11:14:15;;;;;;;5.10;0.40;;;;;;;20.37;27.97;102975.78;5032754;28;20039;-71
2021/12/20 11:16:44;;;;;;;3.20;0.60;;;;;;;19.69;27.64;102979.47;5048722;28;20036;-71
2021/12/20 11:19:32;;;;;;;1.47;0.40;;;;;;;19.86;27.91;102979.25;5034689;28;20025;-72
2021/12/20 11:22:05;;;;;;;0.97;0.40;;;;;;;20.74;27.42;102970.69;5046308;28;20059;-71
2021/12/20 11:24:40;;;;;;;4.30;0.50;;;;;;;21.23;27.15;102973.28;5062103;28;20032;-72
2021/12/20 11:27:09;;;;;;;1.60;0.53;;;;;;;21.12;27.29;102977.03;5042206;28;20052;-71
2021/12/20 11:29:37;;;;;;;2.43;0.80;;;;;;;20.64;28.21;102971.75;5033909;28;20235;-71
2021/12/20 11:32:04;;;;;;;5.23;1.03;;;;;;;20.60;28.78;102964.75;5035695;28;20036;-71
2021/12/20 11:34:30;;;;;;;6.80;1.20;;;;;;;20.29;29.15;102967.94;5061529;28;20032;-71
2021/12/20 11:36:56;;;;;;;5.97;1.00;;;;;;;19.57;29.79;102969.91;5035874;28;20086;-71
2021/12/20 11:39:22;;;;;;;1.07;0.57;;;;;;;20.08;28.90;102966.53;5039722;28;20291;-71
2021/12/20 11:41:48;;;;;;;5.73;0.77;;;;;;;19.13;32.05;102970.47;5046429;28;20040;-71